Time;durP1;ratioP1;P1;durP2;ratioP2;P2;SDS_P1;SDS_P2;PMS_P1;PMS_P2;Temp;Humidity;BMP_temperature;BMP_pressure;BME280_temperature;BME280_humidity;BME280_pressure;Samples;Min_cycle;Max_cycle;Signal;HPM_P1;HPM_P2
2020/12/17 00:01:45;;;;;;;7.80;5.30;;;10.70;99.90;;;;;;5033754;28;20991;-86
2020/12/17 00:04:11;;;;;;;7.80;4.43;;;10.70;99.90;;;;;;5035534;28;20456;-87
2020/12/17 00:06:37;;;;;;;6.33;4.43;;;10.70;99.90;;;;;;5027132;28;20936;-87
2020/12/17 00:09:05;;;;;;;6.20;4.60;;;10.70;99.90;;;;;;5033593;28;20459;-86
2020/12/17 00:11:31;;;;;;;10.00;5.13;;;10.80;99.90;;;;;;5032164;28;20846;-86
2020/12/17 00:13:58;;;;;;;6.80;4.53;;;10.80;99.90;;;;;;5033046;28;20468;-86
2020/12/17 00:16:24;;;;;;;6.90;4.57;;;10.90;99.90;;;;;;5026199;28;20476;-88
2020/12/17 00:18:51;;;;;;;6.90;5.20;;;10.90;99.90;;;;;;5032716;28;20464;-90
2020/12/17 00:21:22;;;;;;;6.30;4.20;;;10.90;99.90;;;;;;5033504;28;20461;-86
2020/12/17 00:23:48;;;;;;;9.83;3.90;;;10.90;99.90;;;;;;5018676;28;20445;-86
2020/12/17 00:26:15;;;;;;;6.33;4.40;;;11.00;99.90;;;;;;5033261;28;20539;-90
2020/12/17 00:28:41;;;;;;;6.27;4.50;;;11.00;99.90;;;;;;5033302;28;20560;-86
2020/12/17 00:31:09;;;;;;;6.03;4.27;;;11.00;99.90;;;;;;5022636;28;20836;-86
2020/12/17 00:33:35;;;;;;;4.90;3.67;;;11.10;99.90;;;;;;5029593;28;20466;-84
2020/12/17 00:36:01;;;;;;;7.10;4.13;;;11.10;99.90;;;;;;5026725;28;20541;-86
2020/12/17 00:38:28;;;;;;;5.40;3.90;;;11.10;99.90;;;;;;5033642;28;20544;-86
2020/12/17 00:40:54;;;;;;;5.10;4.03;;;11.10;99.90;;;;;;5026894;28;20462;-88
2020/12/17 00:43:20;;;;;;;8.40;4.30;;;11.10;99.90;;;;;;5028272;28;21077;-86
2020/12/17 00:45:46;;;;;;;5.87;4.03;;;11.00;99.90;;;;;;5025579;28;20444;-86
2020/12/17 00:48:17;;;;;;;5.43;4.17;;;11.10;99.90;;;;;;5034697;28;20450;-86
2020/12/17 00:50:44;;;;;;;5.97;4.10;;;11.10;99.90;;;;;;5033202;28;20460;-86
2020/12/17 00:53:11;;;;;;;5.60;3.80;;;11.10;99.90;;;;;;5027594;28;20464;-86
2020/12/17 00:55:37;;;;;;;8.83;4.00;;;11.10;99.90;;;;;;5033133;28;20465;-86
2020/12/17 00:58:03;;;;;;;7.13;3.67;;;11.00;99.90;;;;;;5032936;28;20491;-86
2020/12/17 01:00:30;;;;;;;5.87;3.90;;;11.10;99.90;;;;;;5033258;28;20456;-86
2020/12/17 01:02:56;;;;;;;5.60;3.87;;;11.00;99.90;;;;;;5022964;28;21019;-88
2020/12/17 01:05:23;;;;;;;5.40;3.90;;;11.00;99.90;;;;;;5032032;28;20540;-86
2020/12/17 01:07:49;;;;;;;5.33;4.10;;;11.00;99.90;;;;;;5030461;28;20465;-86
2020/12/17 01:10:16;;;;;;;5.43;3.73;;;11.00;99.90;;;;;;5032383;28;20810;-86
2020/12/17 01:12:42;;;;;;;5.70;4.20;;;11.00;99.90;;;;;;5028287;28;20460;-86
2020/12/17 01:15:09;;;;;;;5.43;3.93;;;10.90;99.90;;;;;;5026333;28;20448;-86
2020/12/17 01:17:35;;;;;;;4.90;3.33;;;10.90;99.90;;;;;;5022747;28;20545;-86
2020/12/17 01:20:01;;;;;;;6.20;3.93;;;10.70;99.90;;;;;;5035444;28;20510;-86
2020/12/17 01:22:29;;;;;;;8.53;4.80;;;10.60;99.90;;;;;;5041373;28;20495;-86
2020/12/17 01:24:55;;;;;;;6.40;4.50;;;10.60;99.90;;;;;;5029990;28;20934;-86
2020/12/17 01:27:21;;;;;;;7.03;4.50;;;10.60;99.90;;;;;;5033964;28;20564;-85
2020/12/17 01:29:48;;;;;;;6.30;4.40;;;10.50;99.90;;;;;;5032180;28;20938;-84
2020/12/17 01:32:14;;;;;;;6.37;4.60;;;10.50;99.90;;;;;;5016990;28;20544;-84
2020/12/17 01:34:40;;;;;;;5.20;3.77;;;10.50;99.90;;;;;;5020656;28;20499;-84
2020/12/17 01:37:07;;;;;;;6.10;4.23;;;10.40;99.90;;;;;;5036675;28;20540;-85
2020/12/17 01:39:34;;;;;;;5.93;4.10;;;10.40;99.90;;;;;;5026588;28;20458;-85
2020/12/17 01:42:00;;;;;;;4.30;3.90;;;10.50;99.90;;;;;;5016993;28;20478;-85
2020/12/17 01:44:26;;;;;;;5.27;3.90;;;10.60;99.90;;;;;;5023046;28;20511;-85
2020/12/17 01:46:53;;;;;;;5.20;3.67;;;10.70;99.90;;;;;;5031448;28;20504;-85
2020/12/17 01:49:24;;;;;;;6.97;4.53;;;10.70;99.90;;;;;;5025078;28;21048;-84
2020/12/17 01:51:53;;;;;;;7.17;3.90;;;10.70;99.90;;;;;;5025513;28;20449;-85
2020/12/17 01:54:19;;;;;;;6.70;3.63;;;10.70;99.90;;;;;;4999228;28;20489;-84
2020/12/17 01:56:48;;;;;;;4.50;3.10;;;10.70;99.90;;;;;;5017362;28;20450;-84
2020/12/17 01:59:21;;;;;;;5.50;3.70;;;10.80;99.90;;;;;;5016648;28;20468;-84
2020/12/17 02:01:50;;;;;;;5.87;3.43;;;10.80;99.90;;;;;;5029542;28;20469;-84
2020/12/17 02:04:17;;;;;;;4.63;3.23;;;10.80;99.90;;;;;;5033582;28;20453;-84
2020/12/17 02:06:44;;;;;;;4.40;3.13;;;10.80;99.90;;;;;;5022201;28;20449;-88
2020/12/17 02:09:11;;;;;;;5.07;3.53;;;10.90;99.90;;;;;;5035915;28;20502;-87
2020/12/17 02:11:37;;;;;;;4.97;3.80;;;10.90;99.90;;;;;;5026514;28;20547;-85
2020/12/17 02:14:04;;;;;;;6.13;3.10;;;10.90;99.90;;;;;;5035949;28;20902;-86
2020/12/17 02:16:31;;;;;;;5.20;3.27;;;11.00;99.90;;;;;;5033092;28;20457;-85
2020/12/17 02:18:57;;;;;;;5.43;3.43;;;11.00;99.90;;;;;;5016437;28;20450;-87
2020/12/17 02:21:24;;;;;;;5.20;3.23;;;11.00;99.90;;;;;;5017948;28;20457;-85
2020/12/17 02:23:50;;;;;;;6.13;3.37;;;11.00;99.90;;;;;;5029996;28;20461;-86
2020/12/17 02:26:19;;;;;;;5.80;3.83;;;11.00;99.90;;;;;;5025025;28;20459;-84
2020/12/17 02:28:45;;;;;;;7.80;3.83;;;11.00;99.90;;;;;;5036184;28;20781;-86
2020/12/17 02:31:11;;;;;;;4.10;3.53;;;11.00;99.90;;;;;;5023855;28;20450;-86
2020/12/17 02:33:38;;;;;;;3.43;2.80;;;10.90;99.90;;;;;;5016673;28;20840;-86
2020/12/17 02:36:04;;;;;;;5.60;3.03;;;10.90;99.90;;;;;;5031530;28;20517;-86
2020/12/17 02:38:31;;;;;;;5.10;3.77;;;10.90;99.90;;;;;;5035562;28;20502;-86
2020/12/17 02:40:57;;;;;;;6.43;4.13;;;10.80;99.90;;;;;;5033867;28;20486;-85
2020/12/17 02:43:24;;;;;;;5.33;3.40;;;10.80;99.90;;;;;;5016014;28;20481;-85
2020/12/17 02:45:51;;;;;;;6.93;4.30;;;10.80;99.90;;;;;;5028162;28;20547;-85
2020/12/17 02:48:18;;;;;;;6.17;4.40;;;10.70;99.90;;;;;;5018951;28;20460;-85
2020/12/17 02:50:45;;;;;;;7.23;4.00;;;10.60;99.90;;;;;;5016311;28;20581;-84
2020/12/17 02:53:12;;;;;;;6.07;3.63;;;10.60;99.90;;;;;;5032797;28;20455;-85
2020/12/17 02:55:39;;;;;;;5.50;3.97;;;10.50;99.90;;;;;;5032402;28;20457;-84
2020/12/17 02:58:06;;;;;;;7.07;4.10;;;10.50;99.90;;;;;;5016186;28;20453;-86
2020/12/17 03:00:34;;;;;;;5.67;3.87;;;10.50;99.90;;;;;;5023175;28;20540;-85
2020/12/17 03:03:01;;;;;;;5.40;3.60;;;10.50;99.90;;;;;;5035330;28;20481;-86
2020/12/17 03:05:28;;;;;;;4.93;3.03;;;10.60;99.90;;;;;;5035697;28;20465;-86
2020/12/17 03:07:55;;;;;;;4.87;3.27;;;10.50;99.90;;;;;;5036183;28;20461;-85
2020/12/17 03:10:21;;;;;;;7.00;3.20;;;10.60;99.90;;;;;;5035553;28;20461;-85
2020/12/17 03:12:48;;;;;;;5.00;3.13;;;10.60;99.90;;;;;;5031048;28;20454;-85
2020/12/17 03:15:15;;;;;;;4.63;3.23;;;10.60;99.90;;;;;;5035166;28;20539;-89
2020/12/17 03:17:42;;;;;;;4.60;3.20;;;10.60;99.90;;;;;;5028455;28;20453;-85
2020/12/17 03:20:10;;;;;;;4.33;3.20;;;10.70;99.90;;;;;;5020177;28;20454;-86
2020/12/17 03:22:36;;;;;;;4.27;3.00;;;10.70;99.90;;;;;;5015869;28;20539;-85
2020/12/17 03:25:05;;;;;;;10.20;3.27;;;10.70;99.90;;;;;;5027003;28;20449;-85
2020/12/17 03:27:32;;;;;;;5.20;3.60;;;10.70;99.90;;;;;;5017171;28;20592;-85
2020/12/17 03:29:59;;;;;;;5.20;3.40;;;10.80;99.90;;;;;;5014942;28;20457;-90
2020/12/17 03:32:25;;;;;;;4.20;3.33;;;10.80;99.90;;;;;;5029839;28;20544;-85
2020/12/17 03:34:52;;;;;;;4.27;3.07;;;10.80;99.90;;;;;;5033601;28;20449;-85
2020/12/17 03:37:19;;;;;;;8.80;5.43;;;10.80;99.90;;;;;;5022887;28;20461;-86
2020/12/17 03:39:45;;;;;;;5.87;3.30;;;10.70;99.90;;;;;;5015373;28;20491;-86
2020/12/17 03:42:11;;;;;;;4.87;3.40;;;10.70;99.90;;;;;;5014890;28;20493;-86
2020/12/17 03:44:38;;;;;;;5.50;3.67;;;10.70;99.90;;;;;;5030401;28;20485;-86
2020/12/17 03:47:04;;;;;;;4.50;3.00;;;10.70;99.90;;;;;;5028445;28;20503;-86
2020/12/17 03:49:30;;;;;;;5.43;3.00;;;10.80;99.90;;;;;;5027767;28;20587;-85
2020/12/17 03:51:57;;;;;;;3.87;3.03;;;10.80;99.90;;;;;;5022087;28;20479;-86
2020/12/17 03:54:24;;;;;;;6.53;4.20;;;10.80;99.90;;;;;;5034495;28;20445;-86
2020/12/17 03:56:50;;;;;;;6.13;3.23;;;10.70;99.90;;;;;;5034772;28;20544;-85
2020/12/17 03:59:16;;;;;;;4.47;3.20;;;10.60;99.90;;;;;;5034175;28;20479;-86
2020/12/17 04:01:43;;;;;;;5.10;3.30;;;10.60;99.90;;;;;;5032834;28;20955;-85
2020/12/17 04:04:09;;;;;;;5.60;3.57;;;10.70;99.90;;;;;;5034061;28;20455;-86
2020/12/17 04:06:35;;;;;;;5.67;3.60;;;10.70;99.90;;;;;;5027159;28;20548;-86
2020/12/17 04:09:03;;;;;;;7.50;3.80;;;10.70;99.90;;;;;;5033872;28;20543;-86
2020/12/17 04:11:29;;;;;;;4.80;3.60;;;10.60;99.90;;;;;;5033510;28;20452;-86
2020/12/17 04:13:56;;;;;;;7.63;4.53;;;10.80;99.90;;;;;;5033467;28;20456;-85
2020/12/17 04:16:22;;;;;;;4.47;3.40;;;10.70;99.90;;;;;;5032715;28;20456;-86
2020/12/17 04:18:49;;;;;;;7.53;3.43;;;10.80;99.90;;;;;;5014329;28;20963;-85
2020/12/17 04:21:15;;;;;;;7.20;3.63;;;10.80;99.90;;;;;;5013801;28;20537;-85
2020/12/17 04:23:41;;;;;;;5.10;3.47;;;10.80;99.90;;;;;;5022489;28;20580;-85
2020/12/17 04:26:12;;;;;;;5.60;3.40;;;10.80;99.90;;;;;;5033258;28;20798;-85
2020/12/17 04:28:38;;;;;;;6.30;3.90;;;10.80;99.90;;;;;;5033907;28;20487;-85
2020/12/17 04:31:05;;;;;;;5.90;4.50;;;10.80;99.90;;;;;;5033605;28;20445;-86
2020/12/17 04:33:31;;;;;;;5.57;3.80;;;10.90;99.90;;;;;;5032356;28;20463;-86
2020/12/17 04:35:58;;;;;;;5.87;3.67;;;10.90;99.90;;;;;;5034005;28;20453;-85
2020/12/17 04:38:24;;;;;;;5.90;3.63;;;10.80;99.90;;;;;;5033467;28;20542;-85
2020/12/17 04:40:50;;;;;;;4.47;3.67;;;10.80;99.90;;;;;;5033933;28;20760;-85
2020/12/17 04:43:17;;;;;;;6.57;3.90;;;10.80;99.90;;;;;;5033140;28;20476;-85
2020/12/17 04:45:44;;;;;;;5.10;3.83;;;10.70;99.90;;;;;;5032867;28;20539;-86
2020/12/17 04:48:16;;;;;;;9.90;3.47;;;10.70;99.90;;;;;;5016171;28;20454;-85
2020/12/17 04:50:43;;;;;;;6.37;3.93;;;10.60;99.90;;;;;;5026703;28;20456;-85
2020/12/17 04:53:14;;;;;;;6.63;3.67;;;10.70;99.90;;;;;;5033022;28;20457;-86
2020/12/17 04:55:41;;;;;;;5.63;3.33;;;10.70;99.90;;;;;;5033468;28;20455;-87
2020/12/17 04:58:09;;;;;;;5.70;3.30;;;10.60;99.90;;;;;;5033046;28;20457;-86
2020/12/17 05:00:41;;;;;;;5.60;3.33;;;10.60;99.90;;;;;;5022335;28;20685;-85
2020/12/17 05:03:12;;;;;;;5.30;3.97;;;10.60;99.90;;;;;;5031789;28;20949;-84
2020/12/17 05:05:38;;;;;;;6.13;4.27;;;10.70;99.90;;;;;;5018566;28;20442;-84
2020/12/17 05:08:05;;;;;;;6.80;3.73;;;10.70;99.90;;;;;;5032130;28;20460;-85
2020/12/17 05:10:31;;;;;;;4.43;3.60;;;10.70;99.90;;;;;;5035203;28;20454;-84
2020/12/17 05:12:58;;;;;;;8.70;4.43;;;10.70;99.90;;;;;;5029889;28;20480;-84
2020/12/17 05:15:25;;;;;;;5.00;3.87;;;10.70;99.90;;;;;;5027652;28;20935;-85
2020/12/17 05:17:52;;;;;;;4.83;3.30;;;10.70;99.90;;;;;;5041027;28;20448;-85
2020/12/17 05:20:18;;;;;;;4.30;3.67;;;10.70;99.90;;;;;;5037384;28;20445;-85
2020/12/17 05:22:46;;;;;;;11.00;4.47;;;10.70;99.90;;;;;;5025517;28;20490;-84
2020/12/17 05:25:13;;;;;;;5.90;3.47;;;10.80;99.90;;;;;;5030278;28;20459;-87
2020/12/17 05:27:40;;;;;;;4.80;3.73;;;10.80;99.90;;;;;;5029826;28;20477;-86
2020/12/17 05:30:07;;;;;;;6.07;4.00;;;10.80;99.90;;;;;;5028967;28;20455;-87
2020/12/17 05:32:33;;;;;;;4.17;3.60;;;10.80;99.90;;;;;;5016297;28;20460;-85
2020/12/17 05:35:03;;;;;;;8.07;3.63;;;10.70;99.90;;;;;;5027878;28;20572;-84
2020/12/17 05:37:31;;;;;;;7.60;4.40;;;10.80;99.90;;;;;;5032265;28;21002;-85
2020/12/17 05:40:00;;;;;;;5.00;4.37;;;10.80;99.90;;;;;;5017544;28;20595;-85
2020/12/17 05:42:27;;;;;;;4.83;3.80;;;10.80;99.90;;;;;;5017686;28;20474;-86
2020/12/17 05:52:12;;;;;;;4.93;3.30;;;10.80;99.90;;;;;;4977298;28;20906;-85
2020/12/17 05:54:42;;;;;;;7.83;4.33;;;10.80;99.90;;;;;;5018036;28;20894;-85
2020/12/17 05:57:14;;;;;;;10.40;4.93;;;10.80;99.90;;;;;;5017498;28;20438;-85
2020/12/17 06:03:11;;;;;;;4.60;3.37;;;10.90;99.90;;;;;;5017668;28;20527;-85
2020/12/17 06:12:00;;;;;;;7.00;3.73;;;11.00;99.90;;;;;;5017244;28;20450;-86
2020/12/17 06:14:27;;;;;;;5.50;3.90;;;10.90;99.90;;;;;;5016965;28;20480;-85
2020/12/17 06:16:55;;;;;;;6.63;4.13;;;10.90;99.90;;;;;;5017144;28;20540;-85
2020/12/17 06:19:23;;;;;;;6.17;3.80;;;10.80;99.90;;;;;;5017836;28;20493;-86
2020/12/17 06:21:50;;;;;;;6.50;4.23;;;10.70;99.90;;;;;;5017939;28;20488;-86
2020/12/17 06:35:56;;;;;;;6.30;4.20;;;10.60;99.90;;;;;;5035921;28;20421;-86
2020/12/17 06:42:50;;;;;;;11.80;5.10;;;10.40;99.90;;;;;;5056619;28;20497;-86
2020/12/17 06:45:43;;;;;;;6.23;4.30;;;10.30;99.90;;;;;;5056913;28;20458;-87
2020/12/17 06:48:49;;;;;;;7.40;4.97;;;10.30;99.90;;;;;;5057157;28;20432;-86
2020/12/17 06:51:30;;;;;;;8.50;5.60;;;10.20;99.90;;;;;;5052482;28;20459;-83
2020/12/17 06:53:57;;;;;;;7.50;6.00;;;10.20;99.90;;;;;;5055289;28;20484;-83
2020/12/17 06:56:23;;;;;;;11.27;5.53;;;10.20;99.90;;;;;;5055725;28;20443;-83
2020/12/17 06:58:49;;;;;;;9.67;6.60;;;10.20;99.90;;;;;;5056498;28;20444;-84
2020/12/17 07:01:25;;;;;;;9.97;6.00;;;10.20;99.90;;;;;;5056075;28;20538;-84
2020/12/17 07:03:52;;;;;;;9.77;6.27;;;10.10;99.90;;;;;;5056189;28;20632;-85
2020/12/17 07:06:20;;;;;;;8.83;6.17;;;10.10;99.90;;;;;;5056150;28;20448;-85
2020/12/17 07:08:48;;;;;;;13.37;7.27;;;10.10;99.90;;;;;;5056212;28;20976;-86
2020/12/17 07:11:37;;;;;;;10.57;6.33;;;10.00;99.90;;;;;;5055791;28;20519;-86
2020/12/17 07:14:04;;;;;;;10.13;7.00;;;10.00;99.90;;;;;;5056067;28;20527;-85
2020/12/17 07:16:33;;;;;;;9.03;6.47;;;10.00;99.90;;;;;;5055244;28;20490;-87
2020/12/17 07:19:27;;;;;;;9.20;7.13;;;10.10;99.90;;;;;;5055878;28;20448;-88
2020/12/17 07:21:59;;;;;;;10.83;7.73;;;9.90;99.90;;;;;;5055748;28;20486;-88
2020/12/17 07:24:28;;;;;;;251.90;30.77;;;10.00;99.90;;;;;;5056233;28;20478;-88
2020/12/17 07:26:59;;;;;;;11.67;8.53;;;10.00;99.90;;;;;;5056405;28;20448;-87
2020/12/17 07:29:30;;;;;;;10.33;8.27;;;9.90;99.90;;;;;;5055281;28;20681;-88
2020/12/17 07:32:39;;;;;;;8.37;7.40;;;9.90;99.90;;;;;;5055537;28;20460;-89
2020/12/17 07:35:44;;;;;;;11.37;8.77;;;9.90;99.90;;;;;;4974754;28;20518;-89
2020/12/17 07:38:24;;;;;;;12.33;8.60;;;9.90;99.90;;;;;;4973587;28;20487;-88
2020/12/17 07:40:53;;;;;;;10.73;8.80;;;9.80;99.90;;;;;;5033259;28;20449;-89
2020/12/17 07:43:20;;;;;;;9.70;7.70;;;9.80;99.90;;;;;;5034593;28;20550;-89
2020/12/17 07:45:52;;;;;;;10.13;7.57;;;9.80;99.90;;;;;;5047823;28;21014;-89
2020/12/17 07:48:51;;;;;;;11.20;8.83;;;9.80;99.90;;;;;;5055071;28;20466;-89
2020/12/17 07:54:27;;;;;;;10.80;8.37;;;9.70;99.90;;;;;;5068025;28;20452;-89
2020/12/17 07:57:03;;;;;;;10.10;8.80;;;9.70;99.90;;;;;;5065797;28;20467;-91
2020/12/17 07:59:30;;;;;;;10.63;8.40;;;9.70;99.90;;;;;;5055166;28;20487;-89
2020/12/17 08:01:58;;;;;;;29.23;18.00;;;9.70;99.90;;;;;;5054929;28;20866;-90
2020/12/17 08:04:25;;;;;;;17.63;9.83;;;9.70;99.90;;;;;;5054860;28;20868;-88
2020/12/17 08:06:52;;;;;;;15.83;7.47;;;9.70;99.90;;;;;;5056366;28;20920;-89
2020/12/17 08:09:19;;;;;;;13.93;9.20;;;9.80;99.90;;;;;;5054870;28;20447;-88
2020/12/17 08:11:54;;;;;;;35.50;22.10;;;9.80;99.90;;;;;;5054004;28;20452;-89
2020/12/17 08:14:22;;;;;;;9.40;8.10;;;9.80;99.90;;;;;;5055245;28;20443;-89
2020/12/17 08:16:49;;;;;;;10.40;7.90;;;9.80;99.90;;;;;;5055193;28;20463;-89
2020/12/17 08:19:15;;;;;;;9.10;7.43;;;9.70;99.90;;;;;;5053965;28;20987;-89
2020/12/17 08:21:45;;;;;;;8.13;7.30;;;9.80;99.90;;;;;;5054348;28;20479;-89
2020/12/17 08:24:11;;;;;;;11.13;7.80;;;9.70;99.90;;;;;;5054042;28;20948;-92
2020/12/17 08:26:38;;;;;;;9.40;8.40;;;9.80;99.90;;;;;;5054313;28;20480;-89
2020/12/17 08:29:04;;;;;;;9.20;7.33;;;9.70;99.90;;;;;;5053306;28;20483;-88
2020/12/17 08:31:31;;;;;;;8.83;7.90;;;9.70;99.90;;;;;;5054770;28;20488;-89
2020/12/17 08:34:10;;;;;;;11.87;6.80;;;9.70;99.90;;;;;;5056296;28;20448;-92
2020/12/17 08:36:47;;;;;;;10.33;7.27;;;9.70;99.90;;;;;;5054291;28;20470;-93
2020/12/17 08:39:18;;;;;;;14.87;7.80;;;9.70;99.90;;;;;;5054814;28;20461;-93
2020/12/17 08:41:52;;;;;;;8.97;7.03;;;9.70;99.90;;;;;;5055509;28;20497;-93
2020/12/17 08:44:23;;;;;;;6.87;5.97;;;9.70;99.90;;;;;;5055591;28;20499;-92
2020/12/17 08:46:56;;;;;;;8.10;6.80;;;9.70;99.90;;;;;;5054614;28;20463;-92
2020/12/17 08:49:25;;;;;;;10.80;5.60;;;9.70;99.90;;;;;;5038712;28;20468;-93
2020/12/17 08:51:52;;;;;;;8.30;5.77;;;9.70;99.90;;;;;;5048857;28;20456;-92
2020/12/17 08:54:25;;;;;;;10.17;6.37;;;9.70;99.90;;;;;;5035685;28;20465;-91
2020/12/17 08:56:59;;;;;;;9.30;6.43;;;9.60;99.90;;;;;;5050269;28;20456;-92
2020/12/17 08:59:30;;;;;;;8.30;6.20;;;9.70;99.90;;;;;;5055315;28;20456;-92
2020/12/17 09:01:57;;;;;;;8.47;6.37;;;9.60;99.90;;;;;;5055394;28;20455;-92
2020/12/17 09:04:29;;;;;;;9.67;5.40;;;9.70;99.90;;;;;;5055007;28;20456;-92
2020/12/17 09:06:57;;;;;;;6.30;5.30;;;9.60;99.90;;;;;;5054349;28;20452;-89
2020/12/17 09:09:27;;;;;;;6.03;5.47;;;9.60;99.90;;;;;;5055403;28;20448;-90
2020/12/17 09:11:55;;;;;;;7.57;4.90;;;9.60;99.90;;;;;;5054690;28;20525;-92
2020/12/17 09:14:29;;;;;;;5.40;4.60;;;9.60;99.90;;;;;;5055230;28;20460;-92
2020/12/17 09:17:12;;;;;;;6.67;5.37;;;9.60;99.90;;;;;;5055507;28;20928;-91
2020/12/17 09:19:39;;;;;;;6.00;4.50;;;9.70;99.90;;;;;;5053544;28;20792;-91
2020/12/17 09:22:06;;;;;;;7.80;4.73;;;9.70;99.90;;;;;;5055182;28;20487;-90
2020/12/17 09:24:37;;;;;;;5.63;3.93;;;9.70;99.90;;;;;;5055887;28;20951;-92
2020/12/17 09:27:20;;;;;;;4.73;3.97;;;9.80;99.90;;;;;;5055744;28;20455;-91
2020/12/17 09:30:08;;;;;;;4.97;4.13;;;10.00;99.90;;;;;;5055103;28;20456;-90
2020/12/17 09:32:36;;;;;;;6.33;3.70;;;10.10;99.90;;;;;;5054459;28;20899;-90
2020/12/17 09:35:09;;;;;;;4.10;2.97;;;10.20;99.90;;;;;;5054905;28;20456;-90
2020/12/17 09:37:36;;;;;;;3.63;2.60;;;10.30;99.90;;;;;;5054817;28;20466;-91
2020/12/17 09:40:06;;;;;;;6.50;3.30;;;10.50;99.90;;;;;;5055211;28;20548;-90
2020/12/17 09:42:32;;;;;;;4.00;2.70;;;10.60;99.90;;;;;;5056468;28;20483;-90
2020/12/17 09:44:59;;;;;;;5.03;3.13;;;10.80;99.90;;;;;;5056632;28;20530;-90
2020/12/17 09:47:33;;;;;;;4.50;2.80;;;10.90;99.90;;;;;;5054299;28;20502;-90
2020/12/17 09:50:12;;;;;;;4.63;2.30;;;11.10;99.90;;;;;;5058063;28;20781;-90
2020/12/17 09:52:39;;;;;;;4.20;2.63;;;11.30;99.90;;;;;;5058533;28;20460;-90
2020/12/17 09:55:07;;;;;;;6.30;2.57;;;11.50;99.90;;;;;;5059017;28;20467;-90
2020/12/17 09:57:38;;;;;;;3.53;1.87;;;11.50;99.90;;;;;;5057224;28;20788;-88
2020/12/17 10:00:07;;;;;;;2.63;1.87;;;11.60;99.90;;;;;;5057774;28;20536;-89
2020/12/17 10:02:34;;;;;;;5.00;2.03;;;11.20;99.90;;;;;;5057038;28;20479;-89
2020/12/17 10:05:00;;;;;;;3.00;2.00;;;11.10;99.90;;;;;;5057657;28;20520;-88
2020/12/17 10:07:27;;;;;;;2.90;1.80;;;11.20;99.90;;;;;;5057314;28;20494;-89
2020/12/17 10:09:53;;;;;;;4.67;2.33;;;11.20;99.90;;;;;;5057693;28;20495;-89
2020/12/17 10:12:20;;;;;;;2.87;1.50;;;11.50;99.90;;;;;;5058799;28;20494;-88
2020/12/17 10:14:47;;;;;;;2.87;1.43;;;11.50;99.90;;;;;;5057445;28;20909;-89
2020/12/17 10:17:17;;;;;;;7.23;1.80;;;11.70;99.90;;;;;;5057476;28;20535;-95
2020/12/17 10:19:43;;;;;;;3.57;2.10;;;11.20;99.90;;;;;;5057330;28;20459;-88
2020/12/17 10:22:10;;;;;;;3.50;1.87;;;11.30;99.90;;;;;;5049037;28;20512;-88
2020/12/17 10:24:36;;;;;;;2.90;1.63;;;11.50;99.90;;;;;;5037224;28;20488;-89
2020/12/17 10:27:03;;;;;;;6.77;2.17;;;11.60;99.90;;;;;;5037328;28;20449;-88
2020/12/17 10:29:30;;;;;;;3.60;1.63;;;11.50;99.90;;;;;;5036847;28;20449;-88
2020/12/17 10:31:57;;;;;;;3.30;1.57;;;11.30;99.90;;;;;;5037804;28;20483;-89
2020/12/17 10:34:24;;;;;;;2.63;1.63;;;11.40;99.90;;;;;;5036481;28;20984;-87
2020/12/17 10:37:05;;;;;;;4.03;3.03;;;11.20;99.90;;;;;;5037089;28;20500;-88
2020/12/17 10:46:03;;;;;;;3.17;1.70;;;11.30;99.90;;;;;;4997974;28;20943;-87
2020/12/17 10:48:29;;;;;;;3.50;2.17;;;11.20;99.90;;;;;;5000885;28;20493;-89
2020/12/17 10:50:56;;;;;;;2.80;1.97;;;11.10;99.90;;;;;;4998737;28;20505;-88
2020/12/17 10:53:22;;;;;;;4.73;1.60;;;11.20;99.90;;;;;;4997755;28;20489;-88
2020/12/17 10:55:49;;;;;;;3.37;1.63;;;11.10;99.90;;;;;;4997785;28;20467;-88
2020/12/17 11:02:07;;;;;;;3.10;1.90;;;10.90;99.90;;;;;;5029848;28;20483;-88
2020/12/17 11:05:12;;;;;;;2.63;1.37;;;10.80;99.90;;;;;;5037295;28;21083;-88
2020/12/17 11:07:38;;;;;;;3.37;1.50;;;10.70;99.90;;;;;;4997146;28;20470;-87
2020/12/17 11:10:04;;;;;;;4.73;1.90;;;10.70;99.90;;;;;;4996888;28;20486;-87
2020/12/17 11:12:31;;;;;;;3.47;1.70;;;11.00;99.90;;;;;;4997062;28;20461;-87
2020/12/17 11:14:57;;;;;;;6.07;1.50;;;11.30;99.90;;;;;;4998124;28;20462;-87
2020/12/17 11:17:25;;;;;;;4.20;1.50;;;11.50;99.90;;;;;;4997470;28;20769;-87
2020/12/17 11:19:51;;;;;;;3.30;1.70;;;11.70;99.90;;;;;;4997220;28;20457;-88
2020/12/17 11:22:18;;;;;;;5.10;2.00;;;11.70;99.90;;;;;;4995461;28;20490;-91
2020/12/17 11:24:44;;;;;;;5.50;1.60;;;11.50;99.90;;;;;;4995599;28;20474;-86
2020/12/17 11:27:11;;;;;;;3.40;1.90;;;11.60;99.90;;;;;;5019137;28;20450;-85
2020/12/17 11:29:37;;;;;;;3.33;1.77;;;11.80;99.90;;;;;;5021341;28;20464;-85
2020/12/17 11:32:04;;;;;;;3.23;1.57;;;13.20;99.90;;;;;;5015791;28;20782;-89
2020/12/17 11:34:32;;;;;;;3.30;1.43;;;14.40;99.90;;;;;;5017743;28;20898;-88
2020/12/17 11:40:48;;;;;;;4.07;1.77;;;15.30;99.90;;;;;;5016425;28;20890;-88
2020/12/17 11:46:54;;;;;;;3.40;1.53;;;12.70;99.90;;;;;;5004235;28;20916;-88
2020/12/17 11:49:27;;;;;;;4.67;1.50;;;12.70;99.90;;;;;;4997308;28;20439;-88
2020/12/17 11:52:04;;;;;;;3.90;1.30;;;12.50;99.90;;;;;;4997229;28;20522;-89
2020/12/17 11:58:22;;;;;;;3.60;1.50;;;12.80;99.90;;;;;;4996409;28;20394;-88
2020/12/17 12:04:19;;;;;;;3.30;1.47;;;14.90;99.90;;;;;;5018098;28;20473;-90
2020/12/17 12:06:48;;;;;;;2.47;1.10;;;16.10;99.90;;;;;;5016253;28;20473;-89
2020/12/17 12:09:18;;;;;;;3.50;1.53;;;16.10;99.90;;;;;;5016590;28;20431;-89
2020/12/17 12:12:26;;;;;;;4.30;1.47;;;15.70;99.90;;;;;;5019337;28;20454;-88
2020/12/17 12:18:27;;;;;;;3.30;1.30;;;15.10;99.90;;;;;;5015992;28;20760;-87
2020/12/17 12:21:15;;;;;;;5.27;1.60;;;13.90;99.90;;;;;;5017070;28;20504;-88
2020/12/17 12:24:01;;;;;;;5.80;1.50;;;13.00;99.90;;;;;;5015340;28;20911;-87
2020/12/17 12:26:28;;;;;;;3.00;1.00;;;12.60;99.90;;;;;;5050379;28;20442;-86
2020/12/17 12:28:55;;;;;;;3.33;1.27;;;12.60;99.90;;;;;;5054425;28;20570;-87
2020/12/17 12:31:22;;;;;;;4.40;1.80;;;12.60;99.90;;;;;;5056489;28;20810;-92
2020/12/17 12:33:48;;;;;;;3.37;1.40;;;12.50;99.90;;;;;;5055007;28;20534;-87
2020/12/17 12:36:14;;;;;;;4.00;1.73;;;12.40;99.90;;;;;;5054969;28;20541;-87
2020/12/17 12:38:41;;;;;;;2.20;1.23;;;12.20;99.90;;;;;;5055445;28;20508;-87
2020/12/17 12:41:08;;;;;;;3.73;1.73;;;11.80;99.90;;;;;;5058194;28;20525;-87
2020/12/17 12:43:35;;;;;;;6.13;2.40;;;11.90;99.90;;;;;;5056857;28;20562;-87
2020/12/17 12:46:02;;;;;;;2.63;1.20;;;11.80;99.90;;;;;;5055780;28;20539;-87
2020/12/17 12:48:30;;;;;;;3.23;1.33;;;11.80;99.90;;;;;;5055338;28;20450;-87
2020/12/17 12:50:57;;;;;;;3.10;1.27;;;11.80;99.90;;;;;;5055796;28;20593;-87
2020/12/17 12:53:24;;;;;;;4.13;1.40;;;11.80;99.90;;;;;;5055984;28;20436;-88
2020/12/17 12:55:51;;;;;;;4.47;1.77;;;11.80;99.90;;;;;;5055804;28;20448;-87
2020/12/17 12:58:17;;;;;;;3.00;1.87;;;11.90;99.90;;;;;;5055743;28;20521;-88
2020/12/17 13:00:44;;;;;;;3.83;1.40;;;11.80;99.90;;;;;;5053442;28;20540;-85
2020/12/17 13:03:11;;;;;;;4.43;1.57;;;11.70;99.90;;;;;;5054620;28;20537;-88
2020/12/17 13:05:37;;;;;;;4.93;2.20;;;12.00;99.90;;;;;;5055017;28;20456;-87
2020/12/17 13:08:04;;;;;;;3.10;1.70;;;12.00;99.90;;;;;;5056056;28;20508;-89
2020/12/17 13:10:31;;;;;;;3.57;1.90;;;12.00;99.90;;;;;;5056065;28;20455;-88
2020/12/17 13:12:57;;;;;;;4.13;1.50;;;11.90;99.90;;;;;;5054943;28;20505;-85
2020/12/17 13:15:23;;;;;;;4.47;1.70;;;11.80;99.90;;;;;;5055860;28;20476;-93
2020/12/17 13:17:51;;;;;;;4.70;1.67;;;11.90;99.90;;;;;;5054023;28;20468;-86
2020/12/17 13:20:17;;;;;;;9.10;1.77;;;11.90;99.90;;;;;;5057453;28;20506;-87
2020/12/17 13:22:44;;;;;;;5.53;1.80;;;11.70;99.90;;;;;;5049372;28;20538;-85
2020/12/17 13:25:10;;;;;;;5.10;1.87;;;11.70;99.90;;;;;;5046474;28;20570;-86
2020/12/17 13:27:37;;;;;;;3.50;1.83;;;11.50;99.90;;;;;;5059724;28;20521;-87
2020/12/17 13:30:04;;;;;;;3.93;2.20;;;11.60;99.90;;;;;;5048494;28;20491;-86
2020/12/17 13:32:30;;;;;;;3.37;1.93;;;11.60;99.90;;;;;;5044678;28;20519;-85
2020/12/17 13:34:58;;;;;;;3.80;1.87;;;11.70;99.90;;;;;;5059782;28;20530;-87
2020/12/17 13:44:26;;;;;;;6.93;2.23;;;12.00;99.90;;;;;;5049429;28;20455;-84
2020/12/17 14:03:50;;;;;;;13.83;2.57;;;11.50;99.90;;;;;;5062540;28;20446;-87
2020/12/17 14:06:21;;;;;;;4.13;2.10;;;11.30;99.90;;;;;;5060254;28;20804;-85
2020/12/17 14:08:50;;;;;;;3.63;1.63;;;11.20;99.90;;;;;;5058495;28;20505;-86
2020/12/17 14:11:20;;;;;;;4.43;1.70;;;11.20;99.90;;;;;;5050807;28;20467;-86
2020/12/17 14:13:47;;;;;;;5.90;2.13;;;11.10;99.90;;;;;;5059725;28;20460;-87
2020/12/17 14:16:19;;;;;;;3.43;1.53;;;11.00;99.90;;;;;;5060075;28;20448;-89
2020/12/17 14:18:49;;;;;;;5.17;2.00;;;11.00;99.90;;;;;;5050941;28;20699;-86
2020/12/17 14:21:22;;;;;;;3.80;1.30;;;10.90;99.90;;;;;;5058366;28;20502;-86
2020/12/17 14:23:48;;;;;;;5.67;1.53;;;10.80;99.90;;;;;;5053198;28;20529;-85
2020/12/17 14:26:18;;;;;;;8.77;1.80;;;10.70;99.90;;;;;;5077000;28;20474;-86